Flight Track Log - Related Links

Times and Time Zones

All times are in EDT time to prevent confusion due to time zone crossing. See the UCA3597 flight status page for this flight to view local times or setup timezone preferences in your user account.

Time Position Orientation Groundspeed Altitude Reporting Facility
EDT Latitude Longitude Course Direction KTS MPH feet Rate Location/Type
Thu 09:41:00 PM 39.1695 -77.3638 19° North  Level Estimated
Thu 09:42:00 PM 39.2250 -77.3397 19° North  Level Estimated
Thu 09:43:00 PM 39.2805 -77.3156 19° North  Level Estimated
Thu 09:44:00 PM 39.3360 -77.2914 19° North  Level Estimated
Thu 09:45:00 PM 39.3915 -77.2671 19° North  Level Estimated
Thu 09:46:00 PM 39.4470 -77.2429 19° North  Level Estimated
Thu 09:47:00 PM 39.5024 -77.2185 19° North  Level Estimated
Thu 09:48:00 PM 39.5579 -77.1942 19° North  Level Estimated
Thu 09:49:00 PM 39.6134 -77.1698 19° North  Level Estimated
Thu 09:50:00 PM 39.6688 -77.1454 19° North  Level Estimated
Thu 09:51:00 PM 39.7243 -77.1209 19° North  Level Estimated
Thu 09:52:00 PM 39.7798 -77.0964 19° North  Level Estimated
Thu 09:53:00 PM 39.8352 -77.0718 19° North  Level Estimated
Thu 09:54:00 PM 39.8906 -77.0472 19° North  Level Estimated
Thu 09:55:00 PM 39.9461 -77.0226 19° North  Level Estimated
Thu 09:56:00 PM 40.0015 -76.9980 19° North  Level Estimated
Thu 09:57:00 PM 40.0569 -76.9733 19° North  Level Estimated
Thu 09:58:00 PM 40.1124 -76.9485 19° North  Level Estimated
Thu 09:59:00 PM 40.1678 -76.9237 19° North  Level Estimated
Thu 10:00:00 PM 40.2232 -76.8989 19° North  Level Estimated
Thu 10:01:00 PM 40.2786 -76.8740 19° North  Level Estimated
Thu 10:02:00 PM 40.3340 -76.8491 19° North  Level Estimated
Thu 10:03:00 PM 40.3894 -76.8242 19° North  Level Estimated
Thu 10:04:00 PM 40.4448 -76.7992 19° North  Level Estimated
Thu 10:05:00 PM 40.5001 -76.7741 19° North  Level Estimated
Thu 10:06:00 PM 40.5555 -76.7490 19° North  Level Estimated
Thu 10:07:00 PM 40.6109 -76.7239 19° North  Level Estimated
Thu 10:08:00 PM 40.6663 -76.6988 19° North  Level Estimated
Thu 10:09:00 PM 40.7216 -76.6736 19° North  Level Estimated
Thu 10:10:00 PM 40.7770 -76.6483 19° North  Level Estimated
Thu 10:11:00 PM 40.8323 -76.6230 19° North  Level Estimated
Thu 10:12:00 PM 40.8877 -76.5977 19° North  Level Estimated
Thu 10:13:00 PM 40.9430 -76.5724 19° North  Level Estimated
Thu 10:14:00 PM 40.9984 -76.5470 19° North  Level Estimated
Thu 10:15:00 PM 41.0537 -76.5215 19° North  Level Estimated
Thu 10:16:00 PM 41.1090 -76.4960 19° North  Level Estimated
Thu 10:17:00 PM 41.1643 -76.4705 19° North  Level Estimated
Thu 10:18:00 PM 41.2196 -76.4449 19° North  Level Estimated
Thu 10:19:00 PM 41.2759 -76.4188 19° North  Level Estimated
Thu 10:20:00 PM 41.3321 -76.3927 19° North  Level Estimated
Thu 10:21:00 PM 41.3884 -76.3665 19° North  Level Estimated
Thu 10:22:00 PM 41.4446 -76.3403 19° North  Level Estimated
Thu 10:23:00 PM 41.5009 -76.3141 19° North  Level Estimated
Thu 10:24:00 PM 41.5571 -76.2878 19° North  Level Estimated
Thu 10:25:00 PM 41.6133 -76.2615 19° North  Level Estimated
Thu 10:26:00 PM 41.6695 -76.2351 19° North  Level Estimated
Thu 10:27:00 PM 41.7257 -76.2086 19° North  Level Estimated
Thu 10:28:00 PM 41.7820 -76.1822 19° North  Level Estimated
Thu 10:29:00 PM 41.8382 -76.1556 19° North  Level Estimated
Thu 10:30:00 PM 41.8943 -76.1291 19° North  Level Estimated
Thu 10:31:00 PM 41.9505 -76.1024 19° North  Level Estimated
Thu 10:32:00 PM 42.0067 -76.0758 19° North  Level Estimated
Thu 10:33:00 PM 42.0629 -76.0490 19° North  Level Estimated
Thu 10:34:00 PM 42.1191 -76.0223 19° North  Level Estimated
Thu 10:35:00 PM 42.1752 -75.9955 19° North  Level Estimated
Thu 10:36:00 PM 42.2084 -75.9796 19° North  Level Estimated
Thu 10:37:00 PM 42.2084 -75.9796 North  Level Estimated
Thu 10:38:00 PM 42.2084 -75.9796 North  Level Estimated
Thu 10:39:00 PM 42.2084 -75.9796 North  Level Estimated
Thu 10:40:00 PM 42.2084 -75.9796 North  Level Estimated
Thu 10:41:00 PM 42.2084 -75.9796 North  Level Estimated
Thu 10:42:00 PM 42.2084 -75.9796 North  Level Estimated
Thu 10:43:00 PM 42.2084 -75.9796 North  Level Estimated
Thu 10:44:00 PM 42.2084 -75.9796 North  Level Estimated
Thu 10:45:00 PM 42.2084 -75.9796 North  Level Estimated
Thu 10:46:00 PM 42.2084 -75.9796 North  Level Estimated
Thu 10:47:00 PM 42.2084 -75.9796 North  Level Estimated
Thu 10:48:00 PM 42.2084 -75.9796 North  Level Estimated
Thu 10:49:00 PM 42.2084 -75.9796 North  Level Estimated
Thu 10:50:00 PM 42.2084 -75.9796 North  Level Estimated
Thu 10:51:00 PM 42.2084 -75.9796 North  Level Estimated

Login

Don't have an account? Register now (free) for customized features, flight alerts, and more!